Time;durP1;ratioP1;P1;durP2;ratioP2;P2;SDS_P1;SDS_P2;PMS_P1;PMS_P2;Temp;Humidity;BMP_temperature;BMP_pressure;BME280_temperature;BME280_humidity;BME280_pressure;Samples;Min_cycle;Max_cycle;Signal;HPM_P1;HPM_P2
2023/12/20 00:02:17;;;;;;;0.10;0.10;;;7.50;99.90;;;;;;4963492;28;20508;-70
2023/12/20 00:04:42;;;;;;;0.10;0.10;;;7.50;99.90;;;;;;4961930;28;20497;-70
2023/12/20 00:07:08;;;;;;;0.90;0.90;;;7.50;99.90;;;;;;4964693;28;20034;-69
2023/12/20 00:09:34;;;;;;;0.10;0.10;;;7.40;99.90;;;;;;4961019;28;20117;-70
2023/12/20 00:11:59;;;;;;;0.10;0.10;;;7.40;99.90;;;;;;4972511;28;20047;-70
2023/12/20 00:14:25;;;;;;;0.00;0.00;;;7.30;99.90;;;;;;4965936;28;20043;-70
2023/12/20 00:16:50;;;;;;;0.10;0.10;;;7.30;99.90;;;;;;4959677;28;20506;-70
2023/12/20 00:19:16;;;;;;;0.10;0.10;;;7.30;99.90;;;;;;4961307;28;20050;-70
2023/12/20 00:21:42;;;;;;;1.65;0.68;;;7.30;99.90;;;;;;4958182;28;20047;-70
2023/12/20 00:24:07;;;;;;;0.10;0.10;;;7.40;99.90;;;;;;4962923;28;20050;-70
2023/12/20 00:26:34;;;;;;;0.10;0.10;;;7.30;99.90;;;;;;4963535;28;20050;-70
2023/12/20 00:28:59;;;;;;;10.35;0.95;;;7.40;99.90;;;;;;4958316;28;20035;-70
2023/12/20 00:31:25;;;;;;;0.10;0.10;;;7.40;99.90;;;;;;4963580;28;20097;-70
2023/12/20 00:33:50;;;;;;;0.75;0.75;;;7.40;99.90;;;;;;4968808;28;20042;-70
2023/12/20 00:36:16;;;;;;;0.10;0.10;;;7.40;99.90;;;;;;4996799;28;20043;-71
2023/12/20 00:38:42;;;;;;;0.32;0.32;;;7.40;99.90;;;;;;4964716;28;20046;-70
2023/12/20 00:41:07;;;;;;;0.10;0.10;;;7.40;99.90;;;;;;4965966;28;20051;-70
2023/12/20 00:43:33;;;;;;;0.15;0.15;;;7.40;99.90;;;;;;4966183;28;20074;-71
2023/12/20 00:45:59;;;;;;;0.00;0.00;;;7.40;99.90;;;;;;4961244;28;20417;-71
2023/12/20 00:48:26;;;;;;;2.97;0.75;;;7.50;99.90;;;;;;4970124;28;20093;-71
2023/12/20 00:50:52;;;;;;;0.10;0.10;;;7.40;99.90;;;;;;4968826;28;20109;-70
2023/12/20 00:53:18;;;;;;;0.10;0.10;;;7.40;99.90;;;;;;4959748;28;20042;-70
2023/12/20 00:55:44;;;;;;;0.10;0.10;;;7.50;99.90;;;;;;4962811;28;20058;-70
2023/12/20 00:58:10;;;;;;;0.10;0.10;;;7.50;99.90;;;;;;4966026;28;20098;-70
2023/12/20 01:00:36;;;;;;;3.60;1.65;;;7.50;99.90;;;;;;4962179;28;20031;-70
2023/12/20 01:03:01;;;;;;;0.38;0.38;;;7.60;99.90;;;;;;4967935;28;20523;-70
2023/12/20 01:05:27;;;;;;;0.28;0.28;;;7.60;99.90;;;;;;4983775;28;20089;-70
2023/12/20 01:07:52;;;;;;;0.10;0.10;;;7.60;99.90;;;;;;4966225;28;20050;-70
2023/12/20 01:10:18;;;;;;;0.88;0.75;;;7.60;99.90;;;;;;4955938;28;20395;-70
2023/12/20 01:12:44;;;;;;;31.40;2.20;;;7.70;99.90;;;;;;4964719;28;20050;-70
2023/12/20 01:15:10;;;;;;;0.80;0.80;;;7.70;99.90;;;;;;4970692;28;20471;-70
2023/12/20 01:17:35;;;;;;;0.10;0.10;;;7.60;99.90;;;;;;4966191;28;20045;-70
2023/12/20 01:20:01;;;;;;;0.50;0.50;;;7.60;99.90;;;;;;4959697;28;20051;-70
2023/12/20 01:22:27;;;;;;;0.10;0.10;;;7.70;99.90;;;;;;4965380;28;20050;-70
2023/12/20 01:24:52;;;;;;;0.17;0.17;;;7.60;99.90;;;;;;4968490;28;20087;-70
2023/12/20 01:27:18;;;;;;;1.75;1.30;;;7.70;99.90;;;;;;4965131;28;20047;-70
2023/12/20 01:29:44;;;;;;;0.10;0.10;;;7.70;99.90;;;;;;4961676;28;20051;-70
2023/12/20 01:32:09;;;;;;;0.10;0.10;;;7.70;99.90;;;;;;4967836;28;20039;-70
2023/12/20 01:34:35;;;;;;;0.10;0.10;;;7.70;99.90;;;;;;4962849;28;20085;-69
2023/12/20 01:37:02;;;;;;;0.17;0.17;;;7.80;99.90;;;;;;4962977;28;22898;-70
2023/12/20 01:39:28;;;;;;;0.10;0.10;;;7.80;99.90;;;;;;4966240;28;20078;-70
2023/12/20 01:41:53;;;;;;;0.13;0.13;;;7.80;99.90;;;;;;4965984;28;20081;-69
2023/12/20 01:44:19;;;;;;;0.65;0.65;;;7.80;99.90;;;;;;4957216;28;20039;-70
2023/12/20 01:46:45;;;;;;;0.10;0.10;;;7.80;99.90;;;;;;4966725;28;20108;-70
2023/12/20 01:49:11;;;;;;;0.10;0.10;;;7.80;99.90;;;;;;4958394;28;20129;-70
2023/12/20 01:51:37;;;;;;;0.43;0.43;;;7.80;99.90;;;;;;4965505;28;20181;-70
2023/12/20 01:54:04;;;;;;;1.10;1.10;;;7.80;99.90;;;;;;4964699;28;20509;-70
2023/12/20 01:56:31;;;;;;;0.10;0.10;;;7.70;99.90;;;;;;4966211;28;20062;-71
2023/12/20 01:58:57;;;;;;;0.60;0.60;;;7.80;99.90;;;;;;4973278;28;20809;-70
2023/12/20 02:01:24;;;;;;;0.65;0.47;;;7.80;99.90;;;;;;4967323;28;20122;-70
2023/12/20 02:03:50;;;;;;;0.10;0.10;;;7.80;99.90;;;;;;4961773;28;20506;-70
2023/12/20 02:06:18;;;;;;;0.10;0.10;;;7.80;99.90;;;;;;4964911;28;20106;-70
2023/12/20 02:08:43;;;;;;;0.10;0.10;;;7.80;99.90;;;;;;4975077;28;20043;-70
2023/12/20 02:11:10;;;;;;;1.60;0.73;;;7.80;99.90;;;;;;4963263;28;20405;-69
2023/12/20 02:13:36;;;;;;;0.50;0.50;;;7.80;99.90;;;;;;4971562;28;20487;-69
2023/12/20 02:16:02;;;;;;;1.83;1.58;;;7.80;99.90;;;;;;4982138;28;20082;-69
2023/12/20 02:18:28;;;;;;;0.25;0.25;;;7.80;99.90;;;;;;4967049;28;20042;-69
2023/12/20 02:20:53;;;;;;;0.10;0.10;;;7.80;99.90;;;;;;4968113;28;20046;-69
2023/12/20 02:23:19;;;;;;;0.73;0.73;;;7.80;99.90;;;;;;4965899;28;20109;-70
2023/12/20 02:25:45;;;;;;;0.13;0.13;;;7.80;99.90;;;;;;4974313;28;20047;-71
2023/12/20 02:28:11;;;;;;;0.13;0.13;;;7.80;99.90;;;;;;4961309;28;20041;-71
2023/12/20 02:30:36;;;;;;;0.10;0.10;;;7.80;99.90;;;;;;4966242;28;20470;-71
2023/12/20 02:33:07;;;;;;;0.17;0.17;;;7.80;99.90;;;;;;4981948;28;20057;-70
2023/12/20 02:35:33;;;;;;;0.10;0.10;;;7.80;99.90;;;;;;4957104;28;20050;-71
2023/12/20 02:37:58;;;;;;;1.55;1.45;;;7.80;99.90;;;;;;4972615;28;20062;-70
2023/12/20 02:40:24;;;;;;;0.20;0.20;;;7.80;99.90;;;;;;4967314;28;20043;-71
2023/12/20 02:42:49;;;;;;;0.28;0.28;;;7.80;99.90;;;;;;4962553;28;20073;-70
2023/12/20 02:45:15;;;;;;;0.10;0.10;;;7.80;99.90;;;;;;4972345;28;20046;-70
2023/12/20 02:47:40;;;;;;;0.10;0.10;;;7.80;99.90;;;;;;4971476;28;20057;-70
2023/12/20 02:50:06;;;;;;;0.10;0.10;;;7.80;99.90;;;;;;4965188;28;20514;-70
2023/12/20 02:52:32;;;;;;;0.00;0.00;;;7.80;99.90;;;;;;4969312;28;20191;-70
2023/12/20 02:54:57;;;;;;;0.45;0.45;;;7.80;99.90;;;;;;4970094;28;20390;-70
2023/12/20 02:57:23;;;;;;;0.65;0.65;;;7.80;99.90;;;;;;4966458;28;20086;-70
2023/12/20 02:59:49;;;;;;;0.10;0.10;;;7.80;99.90;;;;;;4966459;28;20500;-70
2023/12/20 03:02:15;;;;;;;0.10;0.10;;;7.70;99.90;;;;;;4967134;28;20039;-70
2023/12/20 03:04:40;;;;;;;0.20;0.20;;;7.70;99.90;;;;;;4970599;28;20078;-71
2023/12/20 03:07:06;;;;;;;0.03;0.03;;;7.80;99.90;;;;;;4966871;28;20118;-70
2023/12/20 03:09:31;;;;;;;0.10;0.10;;;7.80;99.90;;;;;;4967118;28;20057;-71
2023/12/20 03:11:57;;;;;;;0.43;0.43;;;7.80;99.90;;;;;;4973126;28;20039;-70
2023/12/20 03:14:22;;;;;;;0.40;0.40;;;7.80;99.90;;;;;;4966159;28;20414;-70
2023/12/20 03:16:51;;;;;;;0.20;0.20;;;7.80;99.90;;;;;;4970734;28;20071;-70
2023/12/20 03:19:18;;;;;;;0.40;0.40;;;7.80;99.90;;;;;;4964884;28;20058;-70
2023/12/20 03:21:44;;;;;;;0.10;0.10;;;7.80;99.90;;;;;;4969101;28;20049;-70
2023/12/20 03:24:09;;;;;;;0.10;0.10;;;7.80;99.90;;;;;;4973667;28;20130;-70
2023/12/20 03:26:35;;;;;;;0.10;0.10;;;7.90;99.90;;;;;;4961508;28;20039;-70
2023/12/20 03:29:00;;;;;;;0.10;0.10;;;7.90;99.90;;;;;;4960137;28;20055;-70
2023/12/20 03:31:26;;;;;;;0.10;0.10;;;7.90;99.90;;;;;;4961145;28;20043;-70
2023/12/20 03:33:53;;;;;;;0.20;0.20;;;7.90;99.90;;;;;;4964915;28;20063;-70
2023/12/20 03:36:19;;;;;;;0.98;0.95;;;7.90;99.90;;;;;;4956675;28;20066;-70
2023/12/20 03:38:45;;;;;;;3.72;1.38;;;8.00;99.90;;;;;;4956384;28;20126;-70
2023/12/20 03:41:11;;;;;;;0.93;0.85;;;7.90;99.90;;;;;;4983382;28;20189;-70
2023/12/20 03:43:37;;;;;;;1.55;1.05;;;7.90;99.90;;;;;;4975554;28;20050;-70
2023/12/20 03:46:03;;;;;;;0.30;0.30;;;7.90;99.90;;;;;;4971022;28;20050;-70
2023/12/20 03:48:29;;;;;;;0.20;0.20;;;7.90;99.90;;;;;;4968855;28;20042;-71
2023/12/20 03:50:56;;;;;;;0.28;0.28;;;7.90;99.90;;;;;;4969899;28;20046;-70
2023/12/20 03:53:22;;;;;;;0.20;0.20;;;8.00;99.90;;;;;;4964176;28;20051;-70
2023/12/20 03:55:47;;;;;;;0.10;0.10;;;8.00;99.90;;;;;;4961292;28;20046;-70
2023/12/20 03:58:13;;;;;;;2.40;1.65;;;8.00;99.90;;;;;;4959955;28;20039;-70
2023/12/20 04:00:39;;;;;;;0.10;0.10;;;8.00;99.90;;;;;;4965015;28;20057;-71
2023/12/20 04:03:04;;;;;;;1.13;1.10;;;8.00;99.90;;;;;;4961146;28;20053;-70
2023/12/20 04:05:30;;;;;;;0.10;0.10;;;8.00;99.90;;;;;;4966824;28;20042;-70
2023/12/20 04:07:55;;;;;;;0.10;0.10;;;8.00;99.90;;;;;;4963882;28;20133;-69
2023/12/20 04:10:21;;;;;;;0.10;0.10;;;8.00;99.90;;;;;;4961356;28;20516;-70
2023/12/20 04:12:47;;;;;;;0.47;0.47;;;8.00;99.90;;;;;;4962791;28;20058;-70
2023/12/20 04:15:12;;;;;;;0.10;0.10;;;8.00;99.90;;;;;;4977732;28;20035;-70
2023/12/20 04:17:38;;;;;;;0.65;0.65;;;8.00;99.90;;;;;;4957183;28;20051;-70
2023/12/20 04:20:04;;;;;;;1.63;1.52;;;8.00;99.90;;;;;;4963884;28;20074;-70
2023/12/20 04:22:30;;;;;;;0.98;0.93;;;8.00;99.90;;;;;;4960130;28;20133;-70
2023/12/20 04:24:56;;;;;;;0.10;0.10;;;8.10;99.90;;;;;;4961473;28;20070;-70
2023/12/20 04:27:21;;;;;;;1.40;1.30;;;8.10;99.90;;;;;;4956707;28;20199;-70
2023/12/20 04:29:47;;;;;;;0.20;0.20;;;8.10;99.90;;;;;;4969761;28;20070;-70
2023/12/20 04:32:12;;;;;;;0.10;0.10;;;8.10;99.90;;;;;;4966526;28;20050;-70
2023/12/20 04:34:38;;;;;;;0.30;0.30;;;8.10;99.90;;;;;;4966349;28;20043;-70
2023/12/20 04:37:04;;;;;;;0.10;0.10;;;8.00;99.90;;;;;;4990231;28;20081;-70
2023/12/20 04:39:30;;;;;;;13.70;1.98;;;8.10;99.90;;;;;;4967492;28;20489;-70
2023/12/20 04:41:55;;;;;;;0.22;0.22;;;8.10;99.90;;;;;;4965440;28;20045;-70
2023/12/20 04:44:21;;;;;;;0.40;0.40;;;8.10;99.90;;;;;;4975528;28;20050;-70
2023/12/20 04:46:46;;;;;;;0.63;0.63;;;8.20;99.90;;;;;;4969047;28;20042;-70
2023/12/20 04:49:12;;;;;;;2.95;1.70;;;8.10;99.90;;;;;;4981519;28;20047;-70
2023/12/20 04:51:38;;;;;;;0.10;0.10;;;8.20;99.90;;;;;;4964445;28;20550;-70
2023/12/20 04:54:03;;;;;;;1.20;1.10;;;8.20;99.90;;;;;;4972067;28;20050;-70
2023/12/20 04:56:29;;;;;;;0.10;0.10;;;8.20;99.90;;;;;;4967066;28;20203;-70
2023/12/20 04:58:55;;;;;;;0.38;0.38;;;8.10;99.90;;;;;;4975050;28;20047;-70
2023/12/20 05:01:21;;;;;;;0.10;0.10;;;8.20;99.90;;;;;;4966861;28;20498;-70
2023/12/20 05:03:46;;;;;;;1.25;1.20;;;8.10;99.90;;;;;;4970427;28;20108;-70
2023/12/20 05:06:12;;;;;;;2.65;1.75;;;8.10;99.90;;;;;;4969229;28;20506;-70
2023/12/20 05:08:38;;;;;;;0.10;0.10;;;8.20;99.90;;;;;;4960782;28;20039;-70
2023/12/20 05:11:04;;;;;;;0.10;0.10;;;8.20;99.90;;;;;;4958840;28;20098;-70
2023/12/20 05:13:30;;;;;;;0.10;0.10;;;8.20;99.90;;;;;;4965728;28;20045;-70
2023/12/20 05:15:55;;;;;;;1.23;1.23;;;8.20;99.90;;;;;;4958325;28;20047;-70
2023/12/20 05:18:22;;;;;;;28.27;1.55;;;8.20;99.90;;;;;;4963948;28;20071;-70
2023/12/20 05:20:49;;;;;;;0.10;0.10;;;8.20;99.90;;;;;;4965652;28;20435;-70
2023/12/20 05:23:15;;;;;;;0.10;0.10;;;8.20;99.90;;;;;;4964097;28;20047;-70
2023/12/20 05:25:40;;;;;;;1.60;1.35;;;8.30;99.90;;;;;;4957434;28;20035;-70
2023/12/20 05:28:06;;;;;;;0.10;0.10;;;8.30;99.90;;;;;;4970491;28;20064;-70
2023/12/20 05:30:31;;;;;;;1.00;0.93;;;8.30;99.90;;;;;;4961978;28;20098;-70
2023/12/20 05:32:57;;;;;;;0.10;0.10;;;8.30;99.90;;;;;;4965315;28;20043;-70
2023/12/20 05:35:23;;;;;;;0.20;0.20;;;8.20;99.90;;;;;;4952900;28;20031;-70
2023/12/20 05:37:49;;;;;;;7.15;2.63;;;8.30;99.90;;;;;;4965168;28;20077;-70
2023/12/20 05:40:15;;;;;;;1.10;1.05;;;8.30;99.90;;;;;;4964640;28;20537;-70
2023/12/20 05:42:40;;;;;;;0.65;0.65;;;8.30;99.90;;;;;;4968620;28;20043;-70
2023/12/20 05:45:06;;;;;;;0.10;0.10;;;8.30;99.90;;;;;;4973734;28;20038;-70
2023/12/20 05:47:32;;;;;;;3.10;2.40;;;8.30;99.90;;;;;;4962025;28;20047;-70
2023/12/20 05:49:57;;;;;;;0.25;0.25;;;8.30;99.90;;;;;;4974434;28;20039;-70
2023/12/20 05:52:23;;;;;;;1.25;1.05;;;8.30;99.90;;;;;;4962491;28;20038;-70
2023/12/20 05:54:49;;;;;;;0.10;0.10;;;8.30;99.90;;;;;;4960309;28;20105;-70
2023/12/20 05:57:14;;;;;;;0.10;0.10;;;8.30;99.90;;;;;;4967608;28;20394;-70
2023/12/20 05:59:40;;;;;;;6.53;2.25;;;8.30;99.90;;;;;;4963458;28;20045;-70
2023/12/20 06:02:06;;;;;;;0.10;0.10;;;8.40;99.90;;;;;;4967526;28;20047;-70
2023/12/20 06:04:32;;;;;;;0.10;0.10;;;8.30;99.90;;;;;;4966289;28;20076;-70
2023/12/20 06:06:57;;;;;;;0.00;0.00;;;8.30;99.90;;;;;;4968762;28;20047;-70
2023/12/20 06:09:23;;;;;;;0.20;0.20;;;8.30;99.90;;;;;;4964369;28;20050;-70
2023/12/20 06:11:49;;;;;;;1.00;1.00;;;8.30;99.90;;;;;;4964232;28;20047;-70
2023/12/20 06:14:18;;;;;;;0.30;0.30;;;8.30;99.90;;;;;;4961905;28;20047;-70
2023/12/20 06:16:45;;;;;;;0.75;0.75;;;8.30;99.90;;;;;;4960802;28;20041;-70
2023/12/20 06:19:10;;;;;;;0.73;0.73;;;8.30;99.90;;;;;;4968960;28;20053;-70
2023/12/20 06:21:36;;;;;;;0.08;0.08;;;8.40;99.90;;;;;;4955101;28;20406;-70
2023/12/20 06:24:01;;;;;;;4.85;2.85;;;8.30;99.90;;;;;;4972023;28;20249;-70
2023/12/20 06:26:27;;;;;;;0.75;0.75;;;8.30;99.90;;;;;;4972923;28;20095;-70
2023/12/20 06:28:52;;;;;;;0.68;0.68;;;8.30;99.90;;;;;;4965460;28;20043;-70
2023/12/20 06:31:18;;;;;;;0.80;0.80;;;8.40;99.90;;;;;;4972503;28;20050;-70
2023/12/20 06:33:44;;;;;;;3.00;1.85;;;8.40;99.90;;;;;;4970595;28;20118;-70
2023/12/20 06:36:13;;;;;;;1.65;1.02;;;8.40;99.90;;;;;;4963481;28;20093;-70
2023/12/20 06:38:39;;;;;;;4.95;1.88;;;8.40;99.90;;;;;;4971594;28;20057;-70
2023/12/20 06:41:05;;;;;;;0.38;0.38;;;8.40;99.90;;;;;;4977503;28;20051;-70
2023/12/20 06:43:32;;;;;;;0.30;0.30;;;8.40;99.90;;;;;;4954417;28;20047;-70
2023/12/20 06:45:58;;;;;;;0.10;0.10;;;8.40;99.90;;;;;;4972605;28;20461;-70
2023/12/20 06:48:23;;;;;;;1.65;1.50;;;8.40;99.90;;;;;;4970647;28;20054;-70
2023/12/20 06:50:49;;;;;;;1.55;1.02;;;8.40;99.90;;;;;;4959518;28;20091;-70
2023/12/20 06:53:14;;;;;;;1.17;1.08;;;8.40;99.90;;;;;;4967618;28;20582;-70
2023/12/20 06:55:40;;;;;;;0.85;0.68;;;8.40;99.90;;;;;;4968942;28;20046;-71
2023/12/20 06:58:06;;;;;;;5.38;3.30;;;8.40;99.90;;;;;;4968845;28;20046;-70
2023/12/20 07:00:32;;;;;;;0.77;0.77;;;8.40;99.90;;;;;;4972523;28;20043;-71
2023/12/20 07:02:58;;;;;;;2.63;1.70;;;8.40;99.90;;;;;;4972328;28;20043;-71
2023/12/20 07:05:25;;;;;;;0.20;0.20;;;8.40;99.90;;;;;;4970415;28;20077;-70
2023/12/20 07:07:50;;;;;;;3.97;1.10;;;8.30;99.90;;;;;;4975752;28;20046;-70
2023/12/20 07:10:16;;;;;;;0.10;0.10;;;8.30;99.90;;;;;;4970292;28;20046;-70
2023/12/20 07:12:42;;;;;;;1.00;1.00;;;8.30;99.90;;;;;;4966037;28;20049;-70
2023/12/20 07:15:08;;;;;;;0.82;0.82;;;8.30;99.90;;;;;;4960978;28;20050;-70
2023/12/20 07:17:34;;;;;;;0.55;0.55;;;8.30;99.90;;;;;;4973341;28;20055;-71
2023/12/20 07:20:03;;;;;;;0.45;0.45;;;8.30;99.90;;;;;;4971547;28;20071;-71
2023/12/20 07:22:33;;;;;;;0.10;0.10;;;8.30;99.90;;;;;;4963371;28;20061;-71
2023/12/20 07:24:59;;;;;;;0.10;0.10;;;8.30;99.90;;;;;;4970538;28;20043;-71
2023/12/20 07:27:24;;;;;;;0.10;0.10;;;8.30;99.90;;;;;;4971479;28;20078;-71
2023/12/20 07:29:50;;;;;;;0.20;0.20;;;8.30;99.90;;;;;;4964802;28;20047;-71
2023/12/20 07:32:15;;;;;;;0.10;0.10;;;8.30;99.90;;;;;;4962541;28;20050;-71
2023/12/20 07:34:41;;;;;;;0.40;0.40;;;8.40;99.90;;;;;;4972303;28;20038;-71
2023/12/20 07:37:07;;;;;;;0.10;0.10;;;8.40;99.90;;;;;;4964501;28;20051;-71
2023/12/20 07:39:32;;;;;;;3.83;1.42;;;8.40;99.90;;;;;;4966759;28;20491;-71
2023/12/20 07:41:58;;;;;;;0.20;0.20;;;8.40;99.90;;;;;;4961254;28;20043;-71
2023/12/20 07:44:23;;;;;;;0.65;0.55;;;8.40;99.90;;;;;;4975934;28;20047;-71
2023/12/20 07:46:49;;;;;;;0.10;0.10;;;8.40;99.90;;;;;;4970623;28;20050;-71
2023/12/20 07:49:14;;;;;;;1.00;0.93;;;8.40;99.90;;;;;;4972252;28;20042;-71
2023/12/20 07:51:40;;;;;;;1.10;1.05;;;8.50;99.90;;;;;;4961260;28;20491;-71
2023/12/20 07:54:07;;;;;;;0.22;0.22;;;8.50;99.90;;;;;;4967551;28;20511;-71
2023/12/20 07:56:33;;;;;;;1.98;1.85;;;8.40;99.90;;;;;;4956499;28;20043;-71
2023/12/20 07:58:59;;;;;;;0.28;0.28;;;8.30;99.90;;;;;;4965642;28;20606;-71
2023/12/20 08:01:24;;;;;;;0.32;0.32;;;8.10;99.90;;;;;;4959808;28;20055;-71
2023/12/20 08:03:50;;;;;;;0.20;0.20;;;7.90;99.90;;;;;;4970472;28;20054;-72
2023/12/20 08:06:17;;;;;;;1.88;1.13;;;7.80;99.90;;;;;;4964497;28;20441;-72
2023/12/20 08:08:43;;;;;;;0.10;0.10;;;7.90;99.90;;;;;;4967237;28;20050;-72
2023/12/20 08:11:08;;;;;;;2.00;0.98;;;7.90;99.90;;;;;;4962306;28;20513;-72
2023/12/20 08:13:34;;;;;;;0.10;0.10;;;7.90;99.90;;;;;;4962462;28;20098;-72
2023/12/20 08:16:00;;;;;;;0.10;0.10;;;7.90;99.90;;;;;;4961408;28;20038;-72
2023/12/20 08:18:25;;;;;;;0.10;0.10;;;8.00;99.90;;;;;;4963856;28;21022;-72
2023/12/20 08:20:53;;;;;;;0.52;0.45;;;8.10;99.90;;;;;;4968119;28;20050;-72
2023/12/20 08:23:20;;;;;;;2.13;1.95;;;8.10;99.90;;;;;;4958981;28;20557;-72
2023/12/20 08:25:46;;;;;;;0.10;0.10;;;8.20;99.90;;;;;;4961100;28;20497;-72
2023/12/20 08:28:12;;;;;;;0.10;0.10;;;8.20;99.90;;;;;;4960211;28;20070;-72
2023/12/20 08:30:37;;;;;;;0.10;0.10;;;8.30;99.90;;;;;;4965256;28;20038;-72
2023/12/20 08:33:03;;;;;;;0.00;0.00;;;8.30;99.90;;;;;;4968558;28;20089;-72
2023/12/20 08:35:30;;;;;;;2.13;1.23;;;8.40;99.90;;;;;;4960657;28;20042;-72
2023/12/20 08:37:56;;;;;;;0.40;0.40;;;8.40;99.90;;;;;;4956496;28;20512;-72
2023/12/20 08:40:22;;;;;;;0.10;0.10;;;8.40;99.90;;;;;;4975161;28;20122;-72
2023/12/20 08:42:47;;;;;;;32.40;1.02;;;8.40;99.90;;;;;;4965149;28;20145;-72
2023/12/20 08:45:13;;;;;;;2.00;0.88;;;8.50;99.90;;;;;;4958866;28;20043;-71
2023/12/20 08:47:38;;;;;;;0.20;0.20;;;8.40;99.90;;;;;;4953792;28;20039;-72
2023/12/20 08:50:04;;;;;;;1.17;0.55;;;8.40;99.90;;;;;;4961583;28;20053;-72
2023/12/20 08:52:30;;;;;;;0.10;0.10;;;8.50;99.90;;;;;;4960871;28;20420;-72
2023/12/20 08:54:56;;;;;;;0.68;0.68;;;8.50;99.90;;;;;;4963272;28;20047;-72
2023/12/20 08:57:25;;;;;;;1.05;1.05;;;8.50;99.90;;;;;;4965448;28;20051;-70
2023/12/20 08:59:51;;;;;;;0.10;0.10;;;8.30;99.90;;;;;;4961237;28;20074;-71
2023/12/20 09:02:17;;;;;;;0.00;0.00;;;8.00;99.90;;;;;;4981627;28;20085;-71
2023/12/20 09:04:43;;;;;;;0.10;0.10;;;7.90;99.90;;;;;;4965996;28;20043;-72
2023/12/20 09:07:41;;;;;;;0.10;0.10;;;7.90;99.90;;;;;;4971902;28;20051;-72
2023/12/20 09:10:07;;;;;;;2.65;2.17;;;7.70;99.90;;;;;;4957763;28;20059;-72
2023/12/20 09:12:32;;;;;;;1.35;1.30;;;7.70;99.90;;;;;;4959986;28;20069;-72
2023/12/20 09:14:58;;;;;;;0.10;0.10;;;7.50;99.90;;;;;;4967179;28;20043;-72
2023/12/20 09:17:23;;;;;;;0.10;0.10;;;7.50;99.90;;;;;;4969619;28;20090;-70
2023/12/20 09:19:49;;;;;;;0.10;0.10;;;7.50;99.90;;;;;;4976287;28;20051;-71
2023/12/20 09:22:15;;;;;;;0.10;0.10;;;7.40;99.90;;;;;;4992355;28;20043;-71
2023/12/20 09:24:40;;;;;;;0.10;0.10;;;7.40;99.90;;;;;;4961799;28;20043;-71
2023/12/20 09:27:06;;;;;;;0.10;0.10;;;7.40;99.90;;;;;;4963823;28;20078;-71
2023/12/20 09:29:32;;;;;;;1.45;0.40;;;7.30;99.90;;;;;;4956603;28;20047;-71
2023/12/20 09:31:57;;;;;;;0.10;0.10;;;7.30;99.90;;;;;;4964080;28;20081;-71
2023/12/20 09:34:24;;;;;;;0.10;0.10;;;7.30;99.90;;;;;;4954821;28;20391;-71
2023/12/20 09:36:49;;;;;;;0.10;0.10;;;7.30;99.90;;;;;;4965222;28;20522;-71
2023/12/20 09:39:26;;;;;;;0.57;0.57;;;7.30;99.90;;;;;;4965216;28;20066;-72
2023/12/20 09:42:00;;;;;;;0.08;0.08;;;7.40;99.90;;;;;;4968044;28;20057;-72
2023/12/20 09:44:26;;;;;;;0.13;0.13;;;7.40;99.90;;;;;;4968382;28;20043;-72
2023/12/20 09:46:54;;;;;;;0.20;0.20;;;7.40;99.90;;;;;;4961358;28;20043;-72
2023/12/20 09:49:20;;;;;;;0.10;0.10;;;7.40;99.90;;;;;;4956071;28;20049;-72
2023/12/20 09:51:46;;;;;;;0.50;0.50;;;7.40;99.90;;;;;;4963949;28;20126;-71
2023/12/20 09:54:15;;;;;;;0.10;0.10;;;7.40;99.90;;;;;;4959056;28;20106;-71
2023/12/20 09:56:41;;;;;;;0.10;0.10;;;7.40;99.90;;;;;;4964044;28;20051;-71
2023/12/20 09:59:06;;;;;;;0.00;0.00;;;7.30;99.90;;;;;;4972628;28;20042;-72
2023/12/20 10:01:34;;;;;;;0.10;0.10;;;7.30;99.90;;;;;;4962775;28;20050;-71
2023/12/20 10:04:00;;;;;;;0.03;0.03;;;7.40;99.90;;;;;;4963812;28;20494;-71
2023/12/20 10:06:27;;;;;;;1.45;1.35;;;7.40;99.90;;;;;;4967516;28;20098;-71
2023/12/20 10:08:53;;;;;;;0.10;0.10;;;7.50;99.90;;;;;;4955664;28;20991;-71
2023/12/20 10:11:19;;;;;;;0.00;0.00;;;7.70;99.90;;;;;;4967834;28;20512;-71
2023/12/20 10:13:47;;;;;;;0.08;0.08;;;7.80;99.90;;;;;;4967959;28;20421;-72
2023/12/20 10:16:13;;;;;;;0.10;0.10;;;7.80;99.90;;;;;;4957536;28;20046;-71
2023/12/20 10:18:39;;;;;;;0.10;0.10;;;7.80;99.90;;;;;;4965631;28;20595;-70
2023/12/20 10:21:06;;;;;;;0.80;0.73;;;7.80;99.90;;;;;;4969335;28;20039;-70
2023/12/20 10:23:32;;;;;;;0.32;0.32;;;7.80;99.90;;;;;;4960955;28;20137;-70
2023/12/20 10:26:01;;;;;;;8.77;0.40;;;7.90;99.90;;;;;;4968556;28;20138;-70
2023/12/20 10:28:32;;;;;;;0.00;0.00;;;8.00;99.90;;;;;;4971476;28;20050;-70
2023/12/20 10:30:58;;;;;;;0.30;0.30;;;8.00;99.90;;;;;;4979844;28;20562;-69
2023/12/20 10:33:32;;;;;;;2.38;0.75;;;8.00;99.90;;;;;;4965999;28;20125;-70
2023/12/20 10:35:57;;;;;;;0.28;0.28;;;8.00;99.90;;;;;;4965939;28;20057;-70
2023/12/20 10:38:23;;;;;;;0.10;0.10;;;8.00;99.90;;;;;;4976268;28;20054;-70
2023/12/20 10:40:52;;;;;;;0.45;0.45;;;8.10;99.90;;;;;;4980829;28;20089;-70
2023/12/20 10:43:18;;;;;;;0.10;0.10;;;8.10;99.90;;;;;;4960731;28;20081;-70
2023/12/20 10:45:44;;;;;;;0.10;0.10;;;8.20;99.90;;;;;;4969670;28;20038;-70
2023/12/20 10:48:13;;;;;;;0.10;0.10;;;8.20;99.90;;;;;;4975904;28;20102;-70
2023/12/20 10:50:40;;;;;;;0.10;0.10;;;8.20;99.90;;;;;;4960758;28;20042;-70
2023/12/20 10:53:07;;;;;;;0.95;0.85;;;8.20;99.90;;;;;;4965621;28;20129;-70
2023/12/20 10:55:33;;;;;;;0.10;0.10;;;8.20;99.90;;;;;;4976949;28;20039;-70
2023/12/20 10:58:06;;;;;;;19.55;2.13;;;8.20;99.90;;;;;;4963502;28;20604;-70
2023/12/20 11:00:32;;;;;;;;;;;8.20;99.90;;;;;;4969293;28;20461;-70
2023/12/20 11:03:01;;;;;;;15.75;1.95;;;8.30;99.90;;;;;;4970742;28;19926;-70
2023/12/20 11:06:00;;;;;;;0.20;0.20;;;8.40;99.90;;;;;;4974388;28;20101;-70
2023/12/20 11:08:35;;;;;;;0.10;0.10;;;8.40;99.90;;;;;;4965372;28;20390;-70
2023/12/20 11:11:34;;;;;;;0.10;0.10;;;8.50;99.90;;;;;;4974365;28;20039;-70
2023/12/20 11:14:12;;;;;;;0.10;0.10;;;8.50;99.90;;;;;;4960659;28;20053;-70
2023/12/20 11:16:38;;;;;;;0.10;0.10;;;8.60;99.90;;;;;;4969513;28;20074;-70
2023/12/20 11:19:07;;;;;;;0.10;0.10;;;8.60;99.90;;;;;;4962220;28;20066;-70
2023/12/20 11:21:33;;;;;;;0.35;0.35;;;8.70;99.90;;;;;;4972176;28;20120;-70
2023/12/20 11:24:00;;;;;;;0.95;0.75;;;8.80;99.90;;;;;;4970531;28;20062;-70
2023/12/20 11:26:29;;;;;;;0.10;0.10;;;8.80;99.90;;;;;;4968183;28;20046;-70
2023/12/20 11:29:34;;;;;;;0.10;0.10;;;8.80;99.90;;;;;;4971500;28;20042;-70
2023/12/20 11:32:01;;;;;;;30.52;1.17;;;8.80;99.90;;;;;;4973722;28;20137;-69
2023/12/20 11:34:31;;;;;;;0.20;0.20;;;8.80;99.90;;;;;;4965146;28;20487;-70
2023/12/20 11:37:00;;;;;;;0.10;0.10;;;8.80;99.90;;;;;;4977381;28;20181;-69
2023/12/20 11:39:28;;;;;;;0.10;0.10;;;8.80;99.90;;;;;;4965867;28;20058;-70
2023/12/20 11:41:56;;;;;;;0.08;0.08;;;8.80;99.90;;;;;;4971224;28;20394;-70
2023/12/20 11:44:22;;;;;;;0.10;0.10;;;8.70;99.90;;;;;;4974196;28;20046;-70
2023/12/20 11:46:47;;;;;;;0.10;0.10;;;8.70;99.90;;;;;;4972715;28;20076;-69
2023/12/20 11:49:13;;;;;;;0.10;0.10;;;8.80;99.90;;;;;;4971733;28;20051;-69
2023/12/20 11:51:42;;;;;;;0.90;0.70;;;8.80;99.90;;;;;;4967685;28;20043;-70
2023/12/20 11:54:08;;;;;;;0.30;0.30;;;8.80;99.90;;;;;;4960736;28;20109;-70
2023/12/20 11:56:36;;;;;;;0.15;0.15;;;8.80;99.90;;;;;;4963888;28;20500;-70
2023/12/20 11:59:01;;;;;;;1.63;1.52;;;8.80;99.90;;;;;;4965741;28;20043;-71
2023/12/20 12:01:27;;;;;;;0.10;0.10;;;8.70;99.90;;;;;;4961534;28;20453;-71
2023/12/20 12:04:08;;;;;;;0.25;0.25;;;8.70;99.90;;;;;;4973421;28;20058;-71
2023/12/20 12:06:34;;;;;;;0.10;0.10;;;8.70;99.90;;;;;;4970899;28;20394;-71
2023/12/20 12:08:59;;;;;;;0.10;0.10;;;8.70;99.90;;;;;;4966920;28;20035;-71
2023/12/20 12:11:25;;;;;;;1.48;1.38;;;8.60;99.90;;;;;;4971103;28;20043;-71
2023/12/20 12:13:51;;;;;;;0.00;0.00;;;8.60;99.90;;;;;;4985500;28;20058;-71
2023/12/20 12:16:18;;;;;;;1.35;1.17;;;8.60;99.90;;;;;;4972728;28;20035;-71
2023/12/20 12:18:45;;;;;;;0.10;0.10;;;8.60;99.90;;;;;;4962666;28;20086;-71
2023/12/20 12:21:10;;;;;;;0.10;0.10;;;8.50;99.90;;;;;;4967884;28;20043;-71
2023/12/20 12:23:36;;;;;;;0.10;0.10;;;8.50;99.90;;;;;;4983843;28;20050;-71
2023/12/20 12:26:04;;;;;;;0.10;0.10;;;8.50;99.90;;;;;;4962685;28;20458;-72
2023/12/20 12:28:31;;;;;;;0.30;0.30;;;8.40;99.90;;;;;;4958508;28;20039;-71
2023/12/20 12:31:00;;;;;;;0.00;0.00;;;8.40;99.90;;;;;;4962076;28;20055;-71
2023/12/20 12:33:26;;;;;;;2.05;1.42;;;8.30;99.90;;;;;;4980017;28;20038;-71
2023/12/20 12:35:52;;;;;;;0.52;0.52;;;8.30;99.90;;;;;;4962671;28;20493;-71
2023/12/20 12:38:21;;;;;;;0.10;0.10;;;8.10;99.90;;;;;;4962294;28;20047;-71
2023/12/20 12:40:47;;;;;;;0.10;0.10;;;8.10;99.90;;;;;;4969124;28;20038;-71
2023/12/20 12:43:13;;;;;;;0.20;0.20;;;8.10;99.90;;;;;;4964756;28;20050;-71
2023/12/20 12:45:39;;;;;;;0.10;0.10;;;8.00;99.90;;;;;;4972193;28;20545;-72
2023/12/20 12:48:06;;;;;;;0.10;0.10;;;8.00;99.90;;;;;;4964251;28;20054;-71
2023/12/20 12:50:31;;;;;;;0.10;0.10;;;8.00;99.90;;;;;;4965741;28;20771;-71
2023/12/20 12:52:57;;;;;;;0.10;0.10;;;7.90;99.90;;;;;;4965476;28;20100;-71
2023/12/20 12:55:23;;;;;;;0.00;0.00;;;7.90;99.90;;;;;;4964731;28;20122;-71